sensor_id;sensor_type;location;lat;lon;timestamp;P1;durP1;ratioP1;P2;durP2;ratioP2
66020;SDS011;52789;59.980;30.346;2022-12-05T00:01:11;14.02;;;8.68;;
66020;SDS011;52789;59.980;30.346;2022-12-05T00:03:39;14.93;;;9.88;;
66020;SDS011;52789;59.980;30.346;2022-12-05T00:06:04;14.73;;;10.23;;
66020;SDS011;52789;59.980;30.346;2022-12-05T00:08:30;22.00;;;9.93;;
66020;SDS011;52789;59.980;30.346;2022-12-05T00:10:56;15.73;;;10.07;;
66020;SDS011;52789;59.980;30.346;2022-12-05T00:13:21;16.50;;;9.77;;
66020;SDS011;52789;59.980;30.346;2022-12-05T00:15:47;14.57;;;9.23;;
66020;SDS011;52789;59.980;30.346;2022-12-05T00:18:12;16.63;;;10.17;;
66020;SDS011;52789;59.980;30.346;2022-12-05T00:20:43;16.90;;;9.67;;
66020;SDS011;52789;59.980;30.346;2022-12-05T00:23:12;15.57;;;9.70;;
66020;SDS011;52789;59.980;30.346;2022-12-05T00:25:38;18.70;;;10.77;;
66020;SDS011;52789;59.980;30.346;2022-12-05T00:28:04;19.75;;;10.70;;
66020;SDS011;52789;59.980;30.346;2022-12-05T00:30:29;16.00;;;9.30;;
66020;SDS011;52789;59.980;30.346;2022-12-05T00:32:55;17.90;;;9.80;;
66020;SDS011;52789;59.980;30.346;2022-12-05T00:35:21;14.82;;;9.38;;
66020;SDS011;52789;59.980;30.346;2022-12-05T00:37:47;15.87;;;9.60;;
66020;SDS011;52789;59.980;30.346;2022-12-05T00:40:12;17.03;;;10.87;;
66020;SDS011;52789;59.980;30.346;2022-12-05T00:42:38;14.70;;;8.80;;
66020;SDS011;52789;59.980;30.346;2022-12-05T00:45:04;15.53;;;9.37;;
66020;SDS011;52789;59.980;30.346;2022-12-05T00:47:31;15.35;;;10.93;;
66020;SDS011;52789;59.980;30.346;2022-12-05T00:49:59;14.23;;;10.68;;
66020;SDS011;52789;59.980;30.346;2022-12-05T00:52:25;14.67;;;9.33;;
66020;SDS011;52789;59.980;30.346;2022-12-05T00:54:51;17.52;;;8.73;;
66020;SDS011;52789;59.980;30.346;2022-12-05T00:57:16;15.93;;;10.47;;
66020;SDS011;52789;59.980;30.346;2022-12-05T00:59:42;17.50;;;9.37;;
66020;SDS011;52789;59.980;30.346;2022-12-05T01:02:07;15.63;;;9.13;;
66020;SDS011;52789;59.980;30.346;2022-12-05T01:04:33;15.83;;;11.43;;
66020;SDS011;52789;59.980;30.346;2022-12-05T01:06:58;17.63;;;10.87;;
66020;SDS011;52789;59.980;30.346;2022-12-05T01:09:24;16.23;;;9.73;;
66020;SDS011;52789;59.980;30.346;2022-12-05T01:11:51;15.85;;;11.60;;
66020;SDS011;52789;59.980;30.346;2022-12-05T01:14:18;13.05;;;8.77;;
66020;SDS011;52789;59.980;30.346;2022-12-05T01:17:11;13.45;;;8.80;;
66020;SDS011;52789;59.980;30.346;2022-12-05T01:19:37;14.40;;;9.17;;
66020;SDS011;52789;59.980;30.346;2022-12-05T01:22:02;14.93;;;9.90;;
66020;SDS011;52789;59.980;30.346;2022-12-05T01:24:28;14.70;;;10.00;;
66020;SDS011;52789;59.980;30.346;2022-12-05T01:26:54;16.70;;;9.63;;
66020;SDS011;52789;59.980;30.346;2022-12-05T01:29:21;16.93;;;10.10;;
66020;SDS011;52789;59.980;30.346;2022-12-05T01:31:47;15.25;;;10.25;;
66020;SDS011;52789;59.980;30.346;2022-12-05T01:34:13;15.10;;;9.20;;
66020;SDS011;52789;59.980;30.346;2022-12-05T01:36:40;14.73;;;10.40;;
66020;SDS011;52789;59.980;30.346;2022-12-05T01:39:07;18.88;;;10.13;;
66020;SDS011;52789;59.980;30.346;2022-12-05T01:41:35;19.52;;;9.70;;
66020;SDS011;52789;59.980;30.346;2022-12-05T01:46:29;18.30;;;11.37;;
66020;SDS011;52789;59.980;30.346;2022-12-05T01:48:58;15.52;;;10.43;;
66020;SDS011;52789;59.980;30.346;2022-12-05T01:51:33;18.17;;;10.10;;
66020;SDS011;52789;59.980;30.346;2022-12-05T01:56:29;13.70;;;9.88;;
66020;SDS011;52789;59.980;30.346;2022-12-05T01:58:56;10.00;;;7.35;;
66020;SDS011;52789;59.980;30.346;2022-12-05T02:01:24;16.42;;;10.98;;
66020;SDS011;52789;59.980;30.346;2022-12-05T02:03:50;17.37;;;10.83;;
66020;SDS011;52789;59.980;30.346;2022-12-05T02:06:20;16.83;;;11.13;;
66020;SDS011;52789;59.980;30.346;2022-12-05T02:08:46;15.88;;;9.75;;
66020;SDS011;52789;59.980;30.346;2022-12-05T02:11:13;16.05;;;9.95;;
66020;SDS011;52789;59.980;30.346;2022-12-05T02:19:36;17.65;;;11.40;;
66020;SDS011;52789;59.980;30.346;2022-12-05T02:22:30;17.73;;;11.35;;
66020;SDS011;52789;59.980;30.346;2022-12-05T02:28:43;13.80;;;9.48;;
66020;SDS011;52789;59.980;30.346;2022-12-05T02:31:41;21.45;;;11.85;;
66020;SDS011;52789;59.980;30.346;2022-12-05T02:34:18;16.02;;;10.40;;
66020;SDS011;52789;59.980;30.346;2022-12-05T02:36:56;18.52;;;11.27;;
66020;SDS011;52789;59.980;30.346;2022-12-05T02:39:36;22.55;;;12.00;;
66020;SDS011;52789;59.980;30.346;2022-12-05T02:42:58;17.77;;;10.65;;
66020;SDS011;52789;59.980;30.346;2022-12-05T02:45:18;19.38;;;12.45;;
66020;SDS011;52789;59.980;30.346;2022-12-05T02:50:16;17.92;;;10.77;;
66020;SDS011;52789;59.980;30.346;2022-12-05T02:52:46;15.02;;;9.80;;
66020;SDS011;52789;59.980;30.346;2022-12-05T02:55:14;19.03;;;9.97;;
66020;SDS011;52789;59.980;30.346;2022-12-05T02:57:43;18.90;;;11.90;;
66020;SDS011;52789;59.980;30.346;2022-12-05T03:00:13;18.55;;;12.15;;
66020;SDS011;52789;59.980;30.346;2022-12-05T03:02:39;16.75;;;10.90;;
66020;SDS011;52789;59.980;30.346;2022-12-05T03:07:53;17.08;;;11.55;;
66020;SDS011;52789;59.980;30.346;2022-12-05T03:10:24;20.70;;;12.48;;
66020;SDS011;52789;59.980;30.346;2022-12-05T03:12:55;20.13;;;11.93;;
66020;SDS011;52789;59.980;30.346;2022-12-05T03:15:25;18.42;;;10.77;;
66020;SDS011;52789;59.980;30.346;2022-12-05T03:17:59;19.02;;;11.15;;
66020;SDS011;52789;59.980;30.346;2022-12-05T03:20:34;18.08;;;13.23;;
66020;SDS011;52789;59.980;30.346;2022-12-05T03:23:13;13.02;;;9.65;;
66020;SDS011;52789;59.980;30.346;2022-12-05T03:32:08;19.08;;;12.20;;
66020;SDS011;52789;59.980;30.346;2022-12-05T03:34:49;15.73;;;11.20;;
66020;SDS011;52789;59.980;30.346;2022-12-05T03:37:54;17.73;;;12.57;;
66020;SDS011;52789;59.980;30.346;2022-12-05T03:42:57;18.00;;;10.82;;
66020;SDS011;52789;59.980;30.346;2022-12-05T03:45:36;15.93;;;10.88;;
66020;SDS011;52789;59.980;30.346;2022-12-05T03:51:05;17.40;;;11.65;;
66020;SDS011;52789;59.980;30.346;2022-12-05T03:53:36;16.65;;;10.98;;
66020;SDS011;52789;59.980;30.346;2022-12-05T03:56:11;17.58;;;12.23;;
66020;SDS011;52789;59.980;30.346;2022-12-05T04:01:21;19.10;;;12.57;;
66020;SDS011;52789;59.980;30.346;2022-12-05T04:03:51;17.88;;;9.50;;
66020;SDS011;52789;59.980;30.346;2022-12-05T04:06:28;17.08;;;11.40;;
66020;SDS011;52789;59.980;30.346;2022-12-05T04:08:59;17.95;;;12.10;;
66020;SDS011;52789;59.980;30.346;2022-12-05T04:11:34;21.63;;;12.20;;
66020;SDS011;52789;59.980;30.346;2022-12-05T04:14:10;18.33;;;11.45;;
66020;SDS011;52789;59.980;30.346;2022-12-05T04:16:44;22.33;;;11.85;;
66020;SDS011;52789;59.980;30.346;2022-12-05T04:19:36;21.70;;;12.48;;
66020;SDS011;52789;59.980;30.346;2022-12-05T04:22:21;16.63;;;11.90;;
66020;SDS011;52789;59.980;30.346;2022-12-05T04:24:54;18.00;;;12.05;;
66020;SDS011;52789;59.980;30.346;2022-12-05T04:30:24;19.83;;;13.95;;
66020;SDS011;52789;59.980;30.346;2022-12-05T04:35:38;22.40;;;11.77;;
66020;SDS011;52789;59.980;30.346;2022-12-05T04:38:16;25.75;;;12.88;;
66020;SDS011;52789;59.980;30.346;2022-12-05T04:40:58;20.00;;;12.18;;
66020;SDS011;52789;59.980;30.346;2022-12-05T04:45:53;19.90;;;11.68;;
66020;SDS011;52789;59.980;30.346;2022-12-05T04:48:21;19.42;;;12.77;;
66020;SDS011;52789;59.980;30.346;2022-12-05T04:50:49;21.52;;;13.93;;
66020;SDS011;52789;59.980;30.346;2022-12-05T04:53:17;19.15;;;12.50;;
66020;SDS011;52789;59.980;30.346;2022-12-05T04:55:45;21.48;;;12.65;;
66020;SDS011;52789;59.980;30.346;2022-12-05T05:03:30;28.20;;;16.23;;
66020;SDS011;52789;59.980;30.346;2022-12-05T05:06:01;18.50;;;12.02;;
66020;SDS011;52789;59.980;30.346;2022-12-05T05:08:27;21.30;;;13.20;;
66020;SDS011;52789;59.980;30.346;2022-12-05T05:13:25;25.48;;;14.52;;
66020;SDS011;52789;59.980;30.346;2022-12-05T05:15:50;22.50;;;13.60;;
66020;SDS011;52789;59.980;30.346;2022-12-05T05:18:16;20.90;;;13.47;;
66020;SDS011;52789;59.980;30.346;2022-12-05T05:20:41;23.77;;;15.13;;
66020;SDS011;52789;59.980;30.346;2022-12-05T05:23:07;24.33;;;14.60;;
66020;SDS011;52789;59.980;30.346;2022-12-05T05:25:33;47.73;;;16.30;;
66020;SDS011;52789;59.980;30.346;2022-12-05T05:27:58;28.53;;;14.00;;
66020;SDS011;52789;59.980;30.346;2022-12-05T05:30:26;26.90;;;14.70;;
66020;SDS011;52789;59.980;30.346;2022-12-05T05:32:52;21.27;;;13.50;;
66020;SDS011;52789;59.980;30.346;2022-12-05T05:35:18;29.33;;;14.00;;
66020;SDS011;52789;59.980;30.346;2022-12-05T05:37:44;23.35;;;14.13;;
66020;SDS011;52789;59.980;30.346;2022-12-05T05:40:13;25.00;;;14.73;;
66020;SDS011;52789;59.980;30.346;2022-12-05T05:42:45;29.27;;;15.20;;
66020;SDS011;52789;59.980;30.346;2022-12-05T05:45:12;25.38;;;14.48;;
66020;SDS011;52789;59.980;30.346;2022-12-05T05:47:39;24.45;;;14.50;;
66020;SDS011;52789;59.980;30.346;2022-12-05T05:50:20;25.33;;;14.30;;
66020;SDS011;52789;59.980;30.346;2022-12-05T05:52:46;23.52;;;14.50;;
66020;SDS011;52789;59.980;30.346;2022-12-05T05:57:56;24.98;;;14.13;;
66020;SDS011;52789;59.980;30.346;2022-12-05T06:00:21;23.67;;;15.30;;
66020;SDS011;52789;59.980;30.346;2022-12-05T06:02:47;26.50;;;15.00;;
66020;SDS011;52789;59.980;30.346;2022-12-05T06:05:12;28.53;;;16.27;;
66020;SDS011;52789;59.980;30.346;2022-12-05T06:07:38;27.90;;;16.00;;
66020;SDS011;52789;59.980;30.346;2022-12-05T06:10:04;32.37;;;15.77;;
66020;SDS011;52789;59.980;30.346;2022-12-05T06:12:30;29.85;;;19.05;;
66020;SDS011;52789;59.980;30.346;2022-12-05T06:14:55;43.40;;;24.83;;
66020;SDS011;52789;59.980;30.346;2022-12-05T06:17:23;37.93;;;20.10;;
66020;SDS011;52789;59.980;30.346;2022-12-05T06:19:49;29.13;;;14.95;;
66020;SDS011;52789;59.980;30.346;2022-12-05T06:22:15;23.60;;;14.47;;
66020;SDS011;52789;59.980;30.346;2022-12-05T06:24:40;26.63;;;16.03;;
66020;SDS011;52789;59.980;30.346;2022-12-05T06:27:05;24.20;;;13.63;;
66020;SDS011;52789;59.980;30.346;2022-12-05T06:29:31;22.40;;;14.93;;
66020;SDS011;52789;59.980;30.346;2022-12-05T06:31:58;23.60;;;15.27;;
66020;SDS011;52789;59.980;30.346;2022-12-05T06:34:23;29.83;;;16.23;;
66020;SDS011;52789;59.980;30.346;2022-12-05T06:36:49;26.17;;;14.50;;
66020;SDS011;52789;59.980;30.346;2022-12-05T06:39:14;28.67;;;16.40;;
66020;SDS011;52789;59.980;30.346;2022-12-05T06:41:40;47.60;;;22.60;;
66020;SDS011;52789;59.980;30.346;2022-12-05T06:44:05;53.07;;;24.83;;
66020;SDS011;52789;59.980;30.346;2022-12-05T06:46:31;40.07;;;22.83;;
66020;SDS011;52789;59.980;30.346;2022-12-05T06:48:57;24.03;;;15.83;;
66020;SDS011;52789;59.980;30.346;2022-12-05T06:51:26;28.85;;;16.55;;
66020;SDS011;52789;59.980;30.346;2022-12-05T06:53:52;22.70;;;17.20;;
66020;SDS011;52789;59.980;30.346;2022-12-05T06:56:18;29.77;;;15.70;;
66020;SDS011;52789;59.980;30.346;2022-12-05T06:58:45;28.75;;;15.77;;
66020;SDS011;52789;59.980;30.346;2022-12-05T07:01:15;29.40;;;17.00;;
66020;SDS011;52789;59.980;30.346;2022-12-05T07:04:01;21.67;;;14.13;;
66020;SDS011;52789;59.980;30.346;2022-12-05T07:06:27;28.85;;;15.35;;
66020;SDS011;52789;59.980;30.346;2022-12-05T07:08:53;28.67;;;15.87;;
66020;SDS011;52789;59.980;30.346;2022-12-05T07:11:19;32.20;;;17.20;;
66020;SDS011;52789;59.980;30.346;2022-12-05T07:13:45;31.03;;;16.90;;
66020;SDS011;52789;59.980;30.346;2022-12-05T07:16:10;30.20;;;15.70;;
66020;SDS011;52789;59.980;30.346;2022-12-05T07:18:38;26.27;;;16.53;;
66020;SDS011;52789;59.980;30.346;2022-12-05T07:21:04;25.77;;;14.55;;
66020;SDS011;52789;59.980;30.346;2022-12-05T07:23:32;30.98;;;15.38;;
66020;SDS011;52789;59.980;30.346;2022-12-05T07:25:58;29.40;;;18.70;;
66020;SDS011;52789;59.980;30.346;2022-12-05T07:28:24;31.33;;;18.33;;
66020;SDS011;52789;59.980;30.346;2022-12-05T07:31:00;26.20;;;16.40;;
66020;SDS011;52789;59.980;30.346;2022-12-05T07:33:27;26.77;;;16.65;;
66020;SDS011;52789;59.980;30.346;2022-12-05T07:35:57;24.33;;;17.03;;
66020;SDS011;52789;59.980;30.346;2022-12-05T07:38:27;30.10;;;17.83;;
66020;SDS011;52789;59.980;30.346;2022-12-05T07:40:53;30.57;;;18.33;;
66020;SDS011;52789;59.980;30.346;2022-12-05T07:43:18;28.50;;;15.33;;
66020;SDS011;52789;59.980;30.346;2022-12-05T07:45:44;30.27;;;17.73;;
66020;SDS011;52789;59.980;30.346;2022-12-05T07:48:10;32.63;;;18.60;;
66020;SDS011;52789;59.980;30.346;2022-12-05T07:50:35;28.23;;;16.60;;
66020;SDS011;52789;59.980;30.346;2022-12-05T07:53:01;26.90;;;15.90;;
66020;SDS011;52789;59.980;30.346;2022-12-05T07:55:27;29.03;;;17.93;;
66020;SDS011;52789;59.980;30.346;2022-12-05T07:57:54;31.58;;;16.55;;
66020;SDS011;52789;59.980;30.346;2022-12-05T08:00:19;27.23;;;15.53;;
66020;SDS011;52789;59.980;30.346;2022-12-05T08:02:46;29.70;;;16.27;;
66020;SDS011;52789;59.980;30.346;2022-12-05T08:05:11;33.13;;;17.40;;
66020;SDS011;52789;59.980;30.346;2022-12-05T08:07:37;28.53;;;15.83;;
66020;SDS011;52789;59.980;30.346;2022-12-05T08:10:03;27.83;;;16.63;;
66020;SDS011;52789;59.980;30.346;2022-12-05T08:12:29;30.02;;;17.33;;
66020;SDS011;52789;59.980;30.346;2022-12-05T08:14:55;33.00;;;17.40;;
66020;SDS011;52789;59.980;30.346;2022-12-05T08:17:25;25.60;;;15.97;;
66020;SDS011;52789;59.980;30.346;2022-12-05T08:19:55;24.65;;;16.95;;
66020;SDS011;52789;59.980;30.346;2022-12-05T08:22:21;30.43;;;16.37;;
66020;SDS011;52789;59.980;30.346;2022-12-05T08:24:48;28.37;;;15.77;;
66020;SDS011;52789;59.980;30.346;2022-12-05T08:27:14;32.30;;;16.90;;
66020;SDS011;52789;59.980;30.346;2022-12-05T08:29:40;31.13;;;17.13;;
66020;SDS011;52789;59.980;30.346;2022-12-05T08:32:06;31.87;;;17.87;;
66020;SDS011;52789;59.980;30.346;2022-12-05T08:34:34;34.28;;;18.92;;
66020;SDS011;52789;59.980;30.346;2022-12-05T08:37:02;29.17;;;15.90;;
66020;SDS011;52789;59.980;30.346;2022-12-05T08:39:27;27.93;;;15.37;;
66020;SDS011;52789;59.980;30.346;2022-12-05T08:41:53;26.77;;;15.27;;
66020;SDS011;52789;59.980;30.346;2022-12-05T08:44:18;27.47;;;16.87;;
66020;SDS011;52789;59.980;30.346;2022-12-05T08:46:48;26.83;;;15.43;;
66020;SDS011;52789;59.980;30.346;2022-12-05T08:49:14;25.70;;;15.65;;
66020;SDS011;52789;59.980;30.346;2022-12-05T08:51:47;31.90;;;16.15;;
66020;SDS011;52789;59.980;30.346;2022-12-05T08:54:13;29.95;;;17.05;;
66020;SDS011;52789;59.980;30.346;2022-12-05T08:56:40;26.52;;;16.60;;
66020;SDS011;52789;59.980;30.346;2022-12-05T08:59:31;24.98;;;14.30;;
66020;SDS011;52789;59.980;30.346;2022-12-05T09:01:56;24.73;;;14.93;;
66020;SDS011;52789;59.980;30.346;2022-12-05T09:04:22;27.30;;;15.87;;
66020;SDS011;52789;59.980;30.346;2022-12-05T09:06:50;29.40;;;15.40;;
66020;SDS011;52789;59.980;30.346;2022-12-05T09:09:16;27.00;;;15.80;;
66020;SDS011;52789;59.980;30.346;2022-12-05T09:11:42;27.53;;;15.53;;
66020;SDS011;52789;59.980;30.346;2022-12-05T09:14:15;27.20;;;16.45;;
66020;SDS011;52789;59.980;30.346;2022-12-05T09:16:42;26.65;;;15.88;;
66020;SDS011;52789;59.980;30.346;2022-12-05T09:19:11;24.40;;;15.02;;
66020;SDS011;52789;59.980;30.346;2022-12-05T09:21:39;25.35;;;14.23;;
66020;SDS011;52789;59.980;30.346;2022-12-05T09:24:05;23.88;;;15.27;;
66020;SDS011;52789;59.980;30.346;2022-12-05T09:26:31;28.38;;;15.63;;
66020;SDS011;52789;59.980;30.346;2022-12-05T09:28:56;28.33;;;14.47;;
66020;SDS011;52789;59.980;30.346;2022-12-05T09:31:23;26.10;;;15.07;;
66020;SDS011;52789;59.980;30.346;2022-12-05T09:33:51;23.00;;;14.98;;
66020;SDS011;52789;59.980;30.346;2022-12-05T09:36:18;31.00;;;15.52;;
66020;SDS011;52789;59.980;30.346;2022-12-05T09:38:47;21.00;;;14.93;;
66020;SDS011;52789;59.980;30.346;2022-12-05T09:52:40;26.33;;;14.75;;
66020;SDS011;52789;59.980;30.346;2022-12-05T09:58:24;30.00;;;15.02;;
66020;SDS011;52789;59.980;30.346;2022-12-05T10:00:58;23.52;;;14.57;;
66020;SDS011;52789;59.980;30.346;2022-12-05T10:03:46;24.33;;;14.93;;
66020;SDS011;52789;59.980;30.346;2022-12-05T10:06:32;27.35;;;16.10;;
66020;SDS011;52789;59.980;30.346;2022-12-05T10:12:14;25.77;;;16.42;;
66020;SDS011;52789;59.980;30.346;2022-12-05T10:21:03;25.30;;;15.07;;
66020;SDS011;52789;59.980;30.346;2022-12-05T10:26:11;25.95;;;14.93;;
66020;SDS011;52789;59.980;30.346;2022-12-05T10:31:35;29.77;;;15.45;;
66020;SDS011;52789;59.980;30.346;2022-12-05T10:34:04;25.95;;;15.02;;
66020;SDS011;52789;59.980;30.346;2022-12-05T10:36:36;26.25;;;16.23;;
66020;SDS011;52789;59.980;30.346;2022-12-05T10:39:02;26.50;;;15.13;;
66020;SDS011;52789;59.980;30.346;2022-12-05T10:41:27;23.63;;;15.10;;
66020;SDS011;52789;59.980;30.346;2022-12-05T10:43:53;26.07;;;16.03;;
66020;SDS011;52789;59.980;30.346;2022-12-05T10:46:21;27.63;;;16.52;;
66020;SDS011;52789;59.980;30.346;2022-12-05T10:48:47;24.87;;;15.60;;
66020;SDS011;52789;59.980;30.346;2022-12-05T10:51:16;25.73;;;14.87;;
66020;SDS011;52789;59.980;30.346;2022-12-05T10:53:51;28.10;;;15.75;;
66020;SDS011;52789;59.980;30.346;2022-12-05T10:59:03;33.50;;;18.20;;
66020;SDS011;52789;59.980;30.346;2022-12-05T11:01:29;32.27;;;17.30;;
66020;SDS011;52789;59.980;30.346;2022-12-05T11:03:59;32.50;;;17.13;;
66020;SDS011;52789;59.980;30.346;2022-12-05T11:06:30;31.33;;;18.03;;
66020;SDS011;52789;59.980;30.346;2022-12-05T11:09:12;31.20;;;16.60;;
66020;SDS011;52789;59.980;30.346;2022-12-05T11:11:43;21.83;;;14.20;;
66020;SDS011;52789;59.980;30.346;2022-12-05T11:14:25;24.57;;;15.00;;
66020;SDS011;52789;59.980;30.346;2022-12-05T11:16:53;25.03;;;14.73;;
66020;SDS011;52789;59.980;30.346;2022-12-05T11:21:47;29.50;;;16.50;;
66020;SDS011;52789;59.980;30.346;2022-12-05T11:26:59;35.67;;;18.63;;
66020;SDS011;52789;59.980;30.346;2022-12-05T11:29:43;29.87;;;18.27;;
66020;SDS011;52789;59.980;30.346;2022-12-05T11:32:19;29.00;;;16.60;;
66020;SDS011;52789;59.980;30.346;2022-12-05T11:35:04;38.73;;;20.63;;
66020;SDS011;52789;59.980;30.346;2022-12-05T11:37:44;29.97;;;16.77;;
66020;SDS011;52789;59.980;30.346;2022-12-05T11:40:25;33.77;;;18.37;;
66020;SDS011;52789;59.980;30.346;2022-12-05T11:49:13;37.53;;;17.97;;
66020;SDS011;52789;59.980;30.346;2022-12-05T11:57:18;31.70;;;17.80;;
66020;SDS011;52789;59.980;30.346;2022-12-05T12:00:03;29.13;;;16.30;;
66020;SDS011;52789;59.980;30.346;2022-12-05T12:08:17;27.63;;;17.57;;
66020;SDS011;52789;59.980;30.346;2022-12-05T12:10:52;28.77;;;17.07;;
66020;SDS011;52789;59.980;30.346;2022-12-05T12:22:15;31.30;;;18.83;;
66020;SDS011;52789;59.980;30.346;2022-12-05T12:30:05;22.97;;;15.20;;
66020;SDS011;52789;59.980;30.346;2022-12-05T12:32:48;32.17;;;16.50;;
66020;SDS011;52789;59.980;30.346;2022-12-05T12:35:25;26.23;;;15.53;;
66020;SDS011;52789;59.980;30.346;2022-12-05T12:50:59;30.90;;;16.93;;
66020;SDS011;52789;59.980;30.346;2022-12-05T13:03:56;26.15;;;16.58;;
66020;SDS011;52789;59.980;30.346;2022-12-05T13:06:34;35.67;;;17.57;;
66020;SDS011;52789;59.980;30.346;2022-12-05T13:09:37;29.50;;;18.48;;
66020;SDS011;52789;59.980;30.346;2022-12-05T13:12:01;29.53;;;18.67;;
66020;SDS011;52789;59.980;30.346;2022-12-05T13:14:32;35.67;;;17.90;;
66020;SDS011;52789;59.980;30.346;2022-12-05T13:17:01;31.37;;;18.00;;
66020;SDS011;52789;59.980;30.346;2022-12-05T13:19:41;35.50;;;18.77;;
66020;SDS011;52789;59.980;30.346;2022-12-05T13:22:10;30.98;;;17.55;;
66020;SDS011;52789;59.980;30.346;2022-12-05T13:24:38;31.43;;;18.00;;
66020;SDS011;52789;59.980;30.346;2022-12-05T13:27:05;35.17;;;19.67;;
66020;SDS011;52789;59.980;30.346;2022-12-05T13:29:33;33.22;;;18.60;;
66020;SDS011;52789;59.980;30.346;2022-12-05T13:32:02;55.50;;;30.77;;
66020;SDS011;52789;59.980;30.346;2022-12-05T13:34:41;34.30;;;20.30;;
66020;SDS011;52789;59.980;30.346;2022-12-05T13:37:14;29.10;;;19.17;;
66020;SDS011;52789;59.980;30.346;2022-12-05T13:40:03;30.87;;;18.50;;
66020;SDS011;52789;59.980;30.346;2022-12-05T13:42:54;33.00;;;18.23;;
66020;SDS011;52789;59.980;30.346;2022-12-05T13:45:26;39.57;;;22.10;;
66020;SDS011;52789;59.980;30.346;2022-12-05T13:53:27;29.58;;;19.10;;
66020;SDS011;52789;59.980;30.346;2022-12-05T13:55:58;31.02;;;19.60;;
66020;SDS011;52789;59.980;30.346;2022-12-05T14:09:03;27.60;;;17.63;;
66020;SDS011;52789;59.980;30.346;2022-12-05T14:17:26;25.50;;;15.97;;
66020;SDS011;52789;59.980;30.346;2022-12-05T14:20:08;27.50;;;15.67;;
66020;SDS011;52789;59.980;30.346;2022-12-05T14:22:51;31.60;;;17.38;;
66020;SDS011;52789;59.980;30.346;2022-12-05T14:25:48;29.00;;;17.02;;
66020;SDS011;52789;59.980;30.346;2022-12-05T14:37:01;39.05;;;18.20;;
66020;SDS011;52789;59.980;30.346;2022-12-05T14:39:35;32.70;;;17.02;;
66020;SDS011;52789;59.980;30.346;2022-12-05T14:44:51;36.70;;;19.73;;
66020;SDS011;52789;59.980;30.346;2022-12-05T14:47:21;35.77;;;21.47;;
66020;SDS011;52789;59.980;30.346;2022-12-05T14:52:20;34.00;;;19.75;;
66020;SDS011;52789;59.980;30.346;2022-12-05T14:55:04;31.88;;;19.55;;
66020;SDS011;52789;59.980;30.346;2022-12-05T14:57:42;29.27;;;18.60;;
66020;SDS011;52789;59.980;30.346;2022-12-05T15:00:20;28.97;;;17.73;;
66020;SDS011;52789;59.980;30.346;2022-12-05T15:02:47;28.33;;;17.47;;
66020;SDS011;52789;59.980;30.346;2022-12-05T15:07:53;28.65;;;16.58;;
66020;SDS011;52789;59.980;30.346;2022-12-05T15:10:33;27.77;;;17.58;;
66020;SDS011;52789;59.980;30.346;2022-12-05T15:13:03;29.67;;;17.50;;
66020;SDS011;52789;59.980;30.346;2022-12-05T15:21:12;37.33;;;18.98;;
66020;SDS011;52789;59.980;30.346;2022-12-05T15:26:27;34.53;;;18.58;;
66020;SDS011;52789;59.980;30.346;2022-12-05T15:29:07;32.50;;;19.15;;
66020;SDS011;52789;59.980;30.346;2022-12-05T15:31:38;38.80;;;22.30;;
66020;SDS011;52789;59.980;30.346;2022-12-05T15:34:22;32.93;;;18.40;;
66020;SDS011;52789;59.980;30.346;2022-12-05T15:37:01;27.93;;;17.27;;
66020;SDS011;52789;59.980;30.346;2022-12-05T15:42:28;32.95;;;17.92;;
66020;SDS011;52789;59.980;30.346;2022-12-05T15:47:39;28.52;;;17.38;;
66020;SDS011;52789;59.980;30.346;2022-12-05T15:50:12;30.63;;;17.75;;
66020;SDS011;52789;59.980;30.346;2022-12-05T15:55:48;33.17;;;17.93;;
66020;SDS011;52789;59.980;30.346;2022-12-05T16:00:51;30.08;;;17.85;;
66020;SDS011;52789;59.980;30.346;2022-12-05T16:07:52;26.08;;;16.40;;
66020;SDS011;52789;59.980;30.346;2022-12-05T16:10:22;25.30;;;15.95;;
66020;SDS011;52789;59.980;30.346;2022-12-05T16:12:49;32.63;;;15.87;;
66020;SDS011;52789;59.980;30.346;2022-12-05T16:15:29;28.35;;;16.27;;
66020;SDS011;52789;59.980;30.346;2022-12-05T16:17:59;32.05;;;16.08;;
66020;SDS011;52789;59.980;30.346;2022-12-05T16:20:29;26.98;;;15.75;;
66020;SDS011;52789;59.980;30.346;2022-12-05T16:25:42;24.63;;;14.93;;
66020;SDS011;52789;59.980;30.346;2022-12-05T16:30:33;32.67;;;16.97;;
66020;SDS011;52789;59.980;30.346;2022-12-05T16:38:17;25.27;;;15.00;;
66020;SDS011;52789;59.980;30.346;2022-12-05T16:43:22;26.00;;;16.77;;
66020;SDS011;52789;59.980;30.346;2022-12-05T16:45:55;26.75;;;15.07;;
66020;SDS011;52789;59.980;30.346;2022-12-05T16:53:43;27.88;;;15.48;;
66020;SDS011;52789;59.980;30.346;2022-12-05T16:56:16;30.33;;;16.67;;
66020;SDS011;52789;59.980;30.346;2022-12-05T16:58:45;29.67;;;15.77;;
66020;SDS011;52789;59.980;30.346;2022-12-05T17:01:18;30.52;;;15.80;;
66020;SDS011;52789;59.980;30.346;2022-12-05T17:03:46;23.60;;;14.75;;
66020;SDS011;52789;59.980;30.346;2022-12-05T17:06:12;31.03;;;15.00;;
66020;SDS011;52789;59.980;30.346;2022-12-05T17:08:41;26.90;;;15.40;;
66020;SDS011;52789;59.980;30.346;2022-12-05T17:11:14;25.63;;;15.95;;
66020;SDS011;52789;59.980;30.346;2022-12-05T17:13:46;28.07;;;16.47;;
66020;SDS011;52789;59.980;30.346;2022-12-05T17:16:15;24.30;;;14.27;;
66020;SDS011;52789;59.980;30.346;2022-12-05T17:18:46;34.80;;;17.60;;
66020;SDS011;52789;59.980;30.346;2022-12-05T17:21:17;36.00;;;18.55;;
66020;SDS011;52789;59.980;30.346;2022-12-05T17:23:45;30.33;;;16.48;;
66020;SDS011;52789;59.980;30.346;2022-12-05T17:26:12;28.40;;;15.38;;
66020;SDS011;52789;59.980;30.346;2022-12-05T17:28:39;25.75;;;15.32;;
66020;SDS011;52789;59.980;30.346;2022-12-05T17:31:05;27.87;;;15.53;;
66020;SDS011;52789;59.980;30.346;2022-12-05T17:33:31;28.70;;;14.30;;
66020;SDS011;52789;59.980;30.346;2022-12-05T17:35:57;21.17;;;15.33;;
66020;SDS011;52789;59.980;30.346;2022-12-05T17:38:22;18.10;;;12.90;;
66020;SDS011;52789;59.980;30.346;2022-12-05T17:40:48;20.33;;;12.33;;
66020;SDS011;52789;59.980;30.346;2022-12-05T17:43:14;22.57;;;12.77;;
66020;SDS011;52789;59.980;30.346;2022-12-05T17:45:40;22.77;;;13.20;;
66020;SDS011;52789;59.980;30.346;2022-12-05T17:48:13;22.15;;;12.88;;
66020;SDS011;52789;59.980;30.346;2022-12-05T17:50:44;27.90;;;16.48;;
66020;SDS011;52789;59.980;30.346;2022-12-05T17:53:15;24.63;;;13.65;;
66020;SDS011;52789;59.980;30.346;2022-12-05T17:55:42;24.50;;;12.75;;
66020;SDS011;52789;59.980;30.346;2022-12-05T17:58:08;28.27;;;15.67;;
66020;SDS011;52789;59.980;30.346;2022-12-05T18:00:39;25.45;;;15.07;;
66020;SDS011;52789;59.980;30.346;2022-12-05T18:03:05;24.70;;;14.15;;
66020;SDS011;52789;59.980;30.346;2022-12-05T18:05:31;28.50;;;15.33;;
66020;SDS011;52789;59.980;30.346;2022-12-05T18:07:56;24.47;;;14.63;;
66020;SDS011;52789;59.980;30.346;2022-12-05T18:10:22;20.67;;;14.53;;
66020;SDS011;52789;59.980;30.346;2022-12-05T18:13:13;18.95;;;13.45;;
66020;SDS011;52789;59.980;30.346;2022-12-05T18:15:41;21.13;;;13.45;;